Time;durP1;ratioP1;P1;durP2;ratioP2;P2;SDS_P1;SDS_P2;PMS_P1;PMS_P2;Temp;Humidity;BMP_temperature;BMP_pressure;BME280_temperature;BME280_humidity;BME280_pressure;Samples;Min_cycle;Max_cycle;Signal;HPM_P1;HPM_P2
2023/01/19 00:02:23;;;;;;;35.75;17.35;;;;;;;2.22;100.00;99940.63;5019176;28;20632;-71
2023/01/19 00:04:48;;;;;;;31.65;15.93;;;;;;;2.25;100.00;99935.22;5022147;28;20040;-71
2023/01/19 00:07:14;;;;;;;37.03;16.30;;;;;;;2.19;100.00;99938.13;5025228;28;20125;-71
2023/01/19 00:09:43;;;;;;;35.22;17.42;;;;;;;2.27;100.00;99939.50;5025250;28;20044;-71
2023/01/19 00:12:08;;;;;;;35.03;16.42;;;;;;;2.20;100.00;99921.41;5023378;28;20387;-71
2023/01/19 00:14:34;;;;;;;39.80;17.83;;;;;;;2.25;100.00;99932.56;5024466;28;20061;-71
2023/01/19 00:17:00;;;;;;;29.67;15.45;;;;;;;2.17;100.00;99927.66;5013594;28;20490;-71
2023/01/19 00:19:26;;;;;;;34.03;15.63;;;;;;;2.20;100.00;99940.66;5006530;28;20155;-71
2023/01/19 00:21:52;;;;;;;39.10;16.85;;;;;;;2.16;100.00;99938.22;5001776;28;20516;-71
2023/01/19 00:24:17;;;;;;;36.25;16.40;;;;;;;2.21;100.00;99934.50;5006305;28;20037;-71
2023/01/19 00:26:43;;;;;;;34.30;15.57;;;;;;;2.14;100.00;99934.84;5024562;28;20052;-70
2023/01/19 00:29:12;;;;;;;32.05;15.05;;;;;;;2.18;100.00;99937.25;5021763;28;20120;-71
2023/01/19 00:31:38;;;;;;;28.33;14.05;;;;;;;2.18;100.00;99933.78;5014591;28;20152;-71
2023/01/19 00:34:06;;;;;;;36.92;16.23;;;;;;;2.21;100.00;99933.63;5012918;28;20037;-70
2023/01/19 00:36:32;;;;;;;37.67;16.67;;;;;;;2.24;100.00;99937.00;5021987;28;20046;-71
2023/01/19 00:38:58;;;;;;;34.28;15.73;;;;;;;2.28;100.00;99935.94;5024103;28;20479;-71
2023/01/19 00:44:12;;;;;;;33.67;15.30;;;;;;;2.43;100.00;99944.94;4985742;28;20127;-71
2023/01/19 00:46:38;;;;;;;35.35;15.77;;;;;;;2.42;100.00;99940.59;5024170;28;20038;-71
2023/01/19 00:49:04;;;;;;;34.47;16.08;;;;;;;2.44;100.00;99937.88;5022638;28;20052;-71
2023/01/19 00:51:29;;;;;;;38.00;16.73;;;;;;;2.52;100.00;99935.78;5023789;28;20048;-71
2023/01/19 00:53:55;;;;;;;36.95;15.80;;;;;;;2.49;100.00;99942.03;5024140;28;20735;-71
2023/01/19 00:56:20;;;;;;;32.50;16.02;;;;;;;2.46;100.00;99931.66;5023434;28;20053;-71
2023/01/19 00:58:46;;;;;;;33.90;16.25;;;;;;;2.39;100.00;99935.47;5024065;28;20095;-71
2023/01/19 01:01:11;;;;;;;39.35;18.70;;;;;;;2.59;100.00;99935.41;5024241;28;20053;-71
2023/01/19 01:03:37;;;;;;;33.10;16.63;;;;;;;2.52;100.00;99934.00;5024652;28;20044;-70
2023/01/19 01:06:05;;;;;;;33.97;16.63;;;;;;;2.52;100.00;99930.53;5024191;28;20533;-70
2023/01/19 01:08:31;;;;;;;34.88;16.40;;;;;;;2.42;100.00;99927.44;5006816;28;20056;-71
2023/01/19 01:10:56;;;;;;;30.95;14.95;;;;;;;2.40;100.00;99925.78;5024434;28;20038;-71
2023/01/19 01:13:22;;;;;;;41.65;18.50;;;;;;;2.40;100.00;99928.41;5023854;28;20132;-71
2023/01/19 01:15:52;;;;;;;33.15;16.85;;;;;;;2.44;100.00;99927.38;5016381;28;20082;-70
2023/01/19 01:18:17;;;;;;;39.63;17.05;;;;;;;2.34;100.00;99924.28;5002446;28;20037;-71
2023/01/19 01:20:43;;;;;;;32.55;16.48;;;;;;;2.43;100.00;99926.50;5022939;28;20045;-71
2023/01/19 01:23:08;;;;;;;37.83;17.48;;;;;;;2.43;100.00;99931.78;5003429;28;20069;-71
2023/01/19 01:25:36;;;;;;;40.83;17.27;;;;;;;2.51;100.00;99932.31;5001905;28;20053;-71
2023/01/19 01:28:05;;;;;;;38.72;16.75;;;;;;;2.41;100.00;99927.50;5020226;28;20038;-71
2023/01/19 01:30:30;;;;;;;41.00;19.02;;;;;;;2.46;100.00;99923.75;5019024;28;20060;-71
2023/01/19 01:32:56;;;;;;;43.13;17.75;;;;;;;2.44;100.00;99928.22;5024195;28;20162;-71
2023/01/19 01:35:21;;;;;;;36.83;18.95;;;;;;;2.42;100.00;99929.22;5024170;28;20053;-71
2023/01/19 01:37:47;;;;;;;33.13;17.90;;;;;;;2.42;100.00;99924.81;5024006;28;20041;-71
2023/01/19 01:40:14;;;;;;;38.92;18.58;;;;;;;2.45;100.00;99929.91;5002929;28;20053;-71
2023/01/19 01:42:41;;;;;;;37.20;17.85;;;;;;;2.44;100.00;99919.47;5005489;28;20049;-70
2023/01/19 01:45:28;;;;;;;35.90;16.08;;;;;;;2.49;100.00;99928.00;5002798;28;20411;-70
2023/01/19 01:47:56;;;;;;;34.03;16.05;;;;;;;2.48;100.00;99928.94;5003388;28;20048;-71
2023/01/19 01:50:25;;;;;;;30.20;15.57;;;;;;;2.50;100.00;99921.81;5022860;28;20206;-71
2023/01/19 01:52:57;;;;;;;32.28;16.08;;;;;;;2.54;100.00;99918.97;5022390;28;20100;-71
2023/01/19 01:55:26;;;;;;;31.55;14.85;;;;;;;2.50;100.00;99914.78;5002310;28;20049;-71
2023/01/19 01:57:59;;;;;;;34.85;16.33;;;;;;;2.50;100.00;99920.03;5002941;28;20038;-71
2023/01/19 02:00:26;;;;;;;43.40;16.45;;;;;;;2.41;100.00;99916.97;5020778;28;20095;-71
2023/01/19 02:02:53;;;;;;;38.08;16.70;;;;;;;2.57;100.00;99924.13;5021134;28;20049;-71
2023/01/19 02:05:32;;;;;;;34.15;16.30;;;;;;;2.46;100.00;99921.13;4998559;28;20483;-71
2023/01/19 02:13:45;;;;;;;38.90;18.60;;;;;;;2.38;100.00;99911.88;5021017;28;20053;-71
2023/01/19 02:16:12;;;;;;;46.03;16.98;;;;;;;2.44;100.00;99912.44;5020910;28;20041;-71
2023/01/19 02:18:38;;;;;;;49.22;19.35;;;;;;;2.32;100.00;99913.84;5018083;28;20157;-71
2023/01/19 02:21:13;;;;;;;36.20;16.83;;;;;;;2.28;100.00;99924.56;5022844;28;20041;-71
2023/01/19 02:23:45;;;;;;;38.65;20.00;;;;;;;2.21;100.00;99926.63;5009937;28;20097;-71
2023/01/19 02:26:25;;;;;;;37.97;16.83;;;;;;;2.06;100.00;99917.63;5023474;28;20041;-72
2023/01/19 02:28:58;;;;;;;35.83;17.05;;;;;;;1.97;100.00;99918.03;5004148;28;20025;-71
2023/01/19 02:31:26;;;;;;;36.00;17.33;;;;;;;1.82;100.00;99918.66;5022555;28;20475;-71
2023/01/19 02:33:53;;;;;;;34.60;17.45;;;;;;;1.80;100.00;99929.22;5004451;28;20816;-71
2023/01/19 02:36:26;;;;;;;36.88;16.83;;;;;;;1.74;100.00;99926.88;5022709;28;20368;-71
2023/01/19 02:38:55;;;;;;;31.85;16.70;;;;;;;1.74;100.00;99929.50;5008910;28;20030;-70
2023/01/19 02:41:26;;;;;;;33.97;16.77;;;;;;;1.71;100.00;99932.28;5001646;28;20060;-71
2023/01/19 02:43:54;;;;;;;31.83;16.85;;;;;;;1.75;100.00;99931.19;4987813;28;20068;-71
2023/01/19 02:46:20;;;;;;;37.40;17.27;;;;;;;1.70;100.00;99930.53;5007316;28;20046;-71
2023/01/19 02:48:45;;;;;;;35.20;18.77;;;;;;;1.69;100.00;99935.88;5020244;28;20033;-71
2023/01/19 02:51:19;;;;;;;38.90;17.40;;;;;;;1.68;100.00;99935.00;5022979;28;20600;-71
2023/01/19 02:54:03;;;;;;;35.33;17.10;;;;;;;1.66;100.00;99936.84;5022220;28;20442;-70
2023/01/19 02:56:50;;;;;;;33.08;17.98;;;;;;;1.45;100.00;99929.84;5023195;28;20060;-71
2023/01/19 02:59:24;;;;;;;28.85;16.42;;;;;;;1.34;100.00;99932.03;5004832;28;20038;-71
2023/01/19 03:02:17;;;;;;;29.27;16.83;;;;;;;1.19;100.00;99944.88;5021771;28;20034;-71
2023/01/19 03:04:52;;;;;;;36.30;16.45;;;;;;;1.27;100.00;99936.69;5011171;28;20037;-70
2023/01/19 03:07:52;;;;;;;32.03;16.27;;;;;;;1.35;100.00;99942.47;5021220;28;20045;-71
2023/01/19 03:10:42;;;;;;;29.63;15.75;;;;;;;1.39;100.00;99945.84;5004600;28;20056;-71
2023/01/19 03:13:12;;;;;;;26.02;15.05;;;;;;;1.49;100.00;99945.41;5010365;28;20038;-71
2023/01/19 03:15:43;;;;;;;30.88;15.07;;;;;;;1.51;100.00;99940.13;5022440;28;20080;-71
2023/01/19 03:18:11;;;;;;;27.85;14.73;;;;;;;1.52;100.00;99939.19;5021997;28;20069;-71
2023/01/19 03:20:39;;;;;;;25.77;14.45;;;;;;;1.62;100.00;99950.19;5015486;28;20030;-70
2023/01/19 03:23:09;;;;;;;29.17;14.75;;;;;;;1.60;100.00;99952.84;5020709;28;20134;-71
2023/01/19 03:25:39;;;;;;;22.20;13.05;;;;;;;1.60;100.00;99946.75;5012567;28;20607;-71
2023/01/19 03:28:04;;;;;;;25.83;13.35;;;;;;;1.62;100.00;99950.19;5022036;28;20029;-70
2023/01/19 03:30:36;;;;;;;30.15;14.07;;;;;;;1.67;100.00;99954.31;5013600;28;20395;-71
2023/01/19 03:33:08;;;;;;;23.30;13.93;;;;;;;1.68;100.00;99961.28;5017582;28;20049;-71
2023/01/19 03:35:38;;;;;;;22.67;12.55;;;;;;;1.79;100.00;99961.69;5016758;28;20045;-70
2023/01/19 03:38:09;;;;;;;18.35;11.50;;;;;;;1.77;100.00;99962.69;5025095;28;20053;-70
2023/01/19 03:40:35;;;;;;;21.95;12.95;;;;;;;1.69;100.00;99968.25;5025242;28;20053;-71
2023/01/19 03:43:02;;;;;;;17.65;10.73;;;;;;;1.58;100.00;99969.63;5023718;28;20088;-70
2023/01/19 03:45:32;;;;;;;18.15;11.43;;;;;;;1.46;100.00;99968.34;5013778;28;20084;-71
2023/01/19 03:47:58;;;;;;;18.67;10.57;;;;;;;1.41;100.00;99976.41;5025674;28;20087;-71
2023/01/19 03:50:27;;;;;;;24.00;11.75;;;;;;;1.38;100.00;99975.66;5024574;28;20064;-71
2023/01/19 03:53:10;;;;;;;16.98;10.40;;;;;;;1.37;100.00;99985.31;5017045;28;20044;-71
2023/01/19 03:55:39;;;;;;;18.25;10.48;;;;;;;1.35;100.00;99987.13;5011982;28;20060;-71
2023/01/19 03:58:04;;;;;;;18.88;11.00;;;;;;;1.38;100.00;99988.78;5007492;28;20073;-71
2023/01/19 04:00:30;;;;;;;20.00;10.43;;;;;;;1.35;100.00;99994.16;5015508;28;20072;-71
2023/01/19 04:02:56;;;;;;;15.52;10.60;;;;;;;1.38;100.00;99999.31;5018713;28;20041;-71
2023/01/19 04:05:21;;;;;;;16.40;10.70;;;;;;;1.26;100.00;100006.75;5022612;28;20891;-71
2023/01/19 04:07:48;;;;;;;14.05;9.00;;;;;;;1.18;100.00;100005.31;5025020;28;20107;-70
2023/01/19 04:10:15;;;;;;;14.60;9.02;;;;;;;1.06;100.00;100001.41;5011568;28;20096;-70
2023/01/19 04:12:41;;;;;;;14.90;8.23;;;;;;;1.06;100.00;100006.66;5025436;28;20030;-71
2023/01/19 04:15:07;;;;;;;14.43;8.85;;;;;;;1.07;100.00;100008.34;5025532;28;20087;-71
2023/01/19 04:17:32;;;;;;;12.38;8.07;;;;;;;1.04;100.00;100003.22;5015112;28;20033;-71
2023/01/19 04:19:59;;;;;;;12.07;7.47;;;;;;;1.03;100.00;100001.50;5026138;28;20037;-71
2023/01/19 04:22:24;;;;;;;14.45;7.80;;;;;;;1.15;100.00;99993.16;4991271;28;20069;-72
2023/01/19 04:24:50;;;;;;;13.63;7.47;;;;;;;1.10;100.00;99997.72;5025152;28;20049;-71
2023/01/19 04:27:16;;;;;;;12.48;7.55;;;;;;;1.31;100.00;100000.47;5025116;28;20072;-71
2023/01/19 04:29:42;;;;;;;10.27;6.32;;;;;;;1.23;100.00;99992.88;5018219;28;20095;-71
2023/01/19 04:32:07;;;;;;;10.70;6.47;;;;;;;1.24;100.00;99986.69;5025008;28;20045;-71
2023/01/19 04:34:33;;;;;;;10.73;6.68;;;;;;;1.32;100.00;99984.66;5025189;28;20119;-71
2023/01/19 04:36:58;;;;;;;10.65;6.07;;;;;;;1.34;100.00;99993.31;5014466;28;20041;-71
2023/01/19 04:39:24;;;;;;;12.18;5.28;;;;;;;1.41;100.00;100007.06;5007579;28;20508;-71
2023/01/19 04:41:53;;;;;;;7.43;4.25;;;;;;;1.48;100.00;100009.38;5024754;28;20037;-71
2023/01/19 04:44:18;;;;;;;9.18;4.07;;;;;;;1.37;100.00;100006.31;4998742;28;20038;-71
2023/01/19 04:46:44;;;;;;;6.45;3.72;;;;;;;1.38;100.00;100008.03;5023952;28;20779;-71
2023/01/19 04:49:09;;;;;;;6.78;3.67;;;;;;;1.31;100.00;100010.97;5019984;28;20072;-71
2023/01/19 04:51:35;;;;;;;6.10;3.17;;;;;;;1.29;100.00;100029.41;5020999;28;20462;-71
2023/01/19 04:54:01;;;;;;;9.55;3.15;;;;;;;1.24;100.00;100033.97;5013169;28;20029;-71
2023/01/19 04:56:27;;;;;;;6.38;3.00;;;;;;;1.12;100.00;100032.66;5024857;28;20042;-71
2023/01/19 04:58:52;;;;;;;6.13;2.92;;;;;;;1.18;100.00;100032.44;5026350;28;20048;-71
2023/01/19 05:01:18;;;;;;;12.10;3.30;;;;;;;1.10;100.00;100037.09;5025142;28;20145;-71
2023/01/19 05:03:43;;;;;;;5.65;3.50;;;;;;;1.23;100.00;100035.75;5021633;28;20641;-71
2023/01/19 05:06:09;;;;;;;7.30;3.45;;;;;;;1.23;100.00;100027.88;5014441;28;20034;-71
2023/01/19 05:08:34;;;;;;;7.53;4.50;;;;;;;1.22;100.00;100031.41;5023876;28;20824;-71
2023/01/19 05:10:59;;;;;;;11.15;3.63;;;;;;;1.27;100.00;100039.13;5024721;28;20061;-70
2023/01/19 05:13:25;;;;;;;5.82;3.10;;;;;;;1.24;100.00;100041.84;5024861;28;20041;-71
2023/01/19 05:15:50;;;;;;;6.63;3.17;;;;;;;1.48;100.00;100045.31;5014223;28;20072;-71
2023/01/19 05:18:16;;;;;;;10.05;3.17;;;;;;;1.44;100.00;100044.56;5025146;28;20140;-71
2023/01/19 05:20:41;;;;;;;5.88;3.05;;;;;;;1.54;100.00;100047.69;5011358;28;20037;-71
2023/01/19 05:23:06;;;;;;;6.57;2.97;;;;;;;1.46;100.00;100041.91;5024040;28;20072;-71
2023/01/19 05:25:32;;;;;;;4.70;2.53;;;;;;;1.46;100.00;100047.16;5024317;28;20056;-71
2023/01/19 05:27:57;;;;;;;9.25;2.97;;;;;;;1.39;100.00;100032.53;5024714;28;20068;-71
2023/01/19 05:30:22;;;;;;;7.22;3.30;;;;;;;1.43;100.00;100044.63;5019497;28;20057;-71
2023/01/19 05:32:48;;;;;;;10.50;3.65;;;;;;;1.60;100.00;100044.81;5019053;28;20044;-71
2023/01/19 05:35:15;;;;;;;6.43;3.83;;;;;;;1.50;100.00;100051.34;5024376;28;20180;-72
2023/01/19 05:37:41;;;;;;;7.35;3.67;;;;;;;1.58;100.00;100051.06;5019187;28;20479;-71
2023/01/19 05:40:07;;;;;;;9.13;3.88;;;;;;;1.56;100.00;100053.75;5017697;28;20033;-71
2023/01/19 05:42:33;;;;;;;11.10;4.97;;;;;;;1.61;100.00;100049.19;5027960;28;20050;-71
2023/01/19 05:44:59;;;;;;;12.57;4.50;;;;;;;1.61;100.00;100050.91;5024471;28;20033;-71
2023/01/19 05:47:27;;;;;;;11.73;4.57;;;;;;;1.65;100.00;100061.25;5023499;28;20561;-71
2023/01/19 05:49:52;;;;;;;10.10;4.50;;;;;;;1.63;100.00;100059.63;5022860;28;20046;-71
2023/01/19 05:52:19;;;;;;;17.33;5.13;;;;;;;1.65;100.00;100071.75;5015779;28;20768;-71
2023/01/19 05:54:44;;;;;;;10.35;3.97;;;;;;;1.54;100.00;100077.44;5023820;28;20549;-71
2023/01/19 05:57:10;;;;;;;10.68;3.72;;;;;;;1.66;100.00;100076.13;5023372;28;20083;-71
2023/01/19 05:59:36;;;;;;;10.55;4.40;;;;;;;1.64;100.00;100070.06;5024045;28;20041;-71
2023/01/19 06:02:02;;;;;;;8.77;4.10;;;;;;;1.70;100.00;100080.31;5023039;28;20067;-71
2023/01/19 06:04:27;;;;;;;11.25;4.05;;;;;;;1.70;100.00;100090.84;5010384;28;20041;-71
2023/01/19 06:06:53;;;;;;;8.20;3.10;;;;;;;1.64;100.00;100087.59;5017932;28;20037;-71
2023/01/19 06:09:18;;;;;;;6.20;3.03;;;;;;;1.71;100.00;100076.81;5023174;28;20041;-71
2023/01/19 06:11:45;;;;;;;5.90;2.83;;;;;;;1.69;100.00;100083.88;5022291;28;20064;-71
2023/01/19 06:14:10;;;;;;;6.05;2.67;;;;;;;1.67;100.00;100090.97;5022646;28;20049;-71
2023/01/19 06:16:36;;;;;;;11.65;2.72;;;;;;;1.67;100.00;100090.13;5023160;28;20034;-71
2023/01/19 06:19:02;;;;;;;10.43;2.67;;;;;;;1.64;100.00;100090.22;5025610;28;20036;-71
2023/01/19 06:21:27;;;;;;;7.07;2.35;;;;;;;1.64;100.00;100092.84;5016342;28;20038;-71
2023/01/19 06:23:53;;;;;;;9.55;2.30;;;;;;;1.78;100.00;100098.44;5024040;28;20510;-71
2023/01/19 06:26:18;;;;;;;7.32;3.17;;;;;;;1.72;100.00;100093.41;5023604;28;20057;-71
2023/01/19 06:28:44;;;;;;;3.50;2.15;;;;;;;1.79;100.00;100100.13;5019554;28;20125;-71
2023/01/19 06:31:09;;;;;;;9.43;2.83;;;;;;;1.83;100.00;100106.13;5020180;28;20044;-71
2023/01/19 06:33:35;;;;;;;5.70;2.63;;;;;;;1.72;100.00;100099.53;5026415;28;20044;-71
2023/01/19 06:36:00;;;;;;;16.73;2.88;;;;;;;1.87;100.00;100111.22;5014831;28;20041;-71
2023/01/19 06:38:26;;;;;;;12.10;2.85;;;;;;;1.95;100.00;100114.38;5015416;28;20037;-71
2023/01/19 06:41:01;;;;;;;12.60;3.25;;;;;;;1.89;100.00;100122.50;5025210;28;20041;-71
2023/01/19 06:43:27;;;;;;;15.23;3.40;;;;;;;1.94;100.00;100124.97;5022376;28;20048;-71
2023/01/19 06:45:53;;;;;;;7.38;2.50;;;;;;;1.90;100.00;100124.22;5023726;28;20050;-71
2023/01/19 06:48:19;;;;;;;7.05;2.63;;;;;;;1.89;100.00;100122.50;5022720;28;20693;-71
2023/01/19 06:50:46;;;;;;;14.07;3.38;;;;;;;1.97;100.00;100124.84;5002683;28;20091;-71
2023/01/19 06:53:11;;;;;;;9.13;3.00;;;;;;;1.91;100.00;100125.06;5020275;28;20033;-71
2023/01/19 06:55:38;;;;;;;8.45;3.50;;;;;;;1.95;100.00;100131.94;5004133;28;20504;-71
2023/01/19 06:58:04;;;;;;;14.57;2.72;;;;;;;2.00;100.00;100135.22;5004214;28;20494;-71
2023/01/19 07:00:29;;;;;;;15.32;3.33;;;;;;;1.98;100.00;100137.94;5022618;28;20045;-71
2023/01/19 07:02:54;;;;;;;16.67;3.95;;;;;;;2.07;100.00;100155.97;5022548;28;20042;-71
2023/01/19 07:05:20;;;;;;;8.75;3.60;;;;;;;2.05;100.00;100155.16;5008497;28;20454;-71
2023/01/19 07:07:51;;;;;;;12.05;3.35;;;;;;;2.04;100.00;100157.84;5022441;28;20115;-71
2023/01/19 07:10:16;;;;;;;10.90;3.30;;;;;;;2.08;100.00;100169.97;5023693;28;20215;-71
2023/01/19 07:12:44;;;;;;;12.82;3.55;;;;;;;2.10;100.00;100173.38;5004694;28;20124;-71
2023/01/19 07:15:10;;;;;;;10.85;3.92;;;;;;;2.03;100.00;100170.16;5004918;28;20830;-71
2023/01/19 07:17:36;;;;;;;12.50;5.20;;;;;;;2.04;100.00;100179.75;5025836;28;20055;-71
2023/01/19 07:20:01;;;;;;;15.15;3.97;;;;;;;1.98;100.00;100193.13;5023611;28;20030;-72
2023/01/19 07:22:27;;;;;;;15.90;4.05;;;;;;;1.99;100.00;100194.00;5023441;28;20049;-72
2023/01/19 07:24:52;;;;;;;24.90;4.45;;;;;;;2.07;100.00;100200.69;5014732;28;20041;-71
2023/01/19 07:27:18;;;;;;;16.10;4.05;;;;;;;2.12;100.00;100212.78;5021458;28;20052;-71
2023/01/19 07:29:43;;;;;;;16.10;5.72;;;;;;;1.97;100.00;100209.84;5016640;28;20088;-71
2023/01/19 07:32:09;;;;;;;11.57;4.15;;;;;;;1.97;100.00;100222.97;5018936;28;20041;-71
2023/01/19 07:34:35;;;;;;;11.90;4.03;;;;;;;1.94;100.00;100223.09;5007583;28;20037;-71
2023/01/19 07:37:00;;;;;;;13.85;3.90;;;;;;;1.93;100.00;100223.16;5018524;28;20475;-71
2023/01/19 07:39:26;;;;;;;10.02;4.03;;;;;;;1.90;100.00;100231.16;5026209;28;20052;-70
2023/01/19 07:41:51;;;;;;;12.55;4.03;;;;;;;1.98;100.00;100229.09;5025188;28;20038;-71
2023/01/19 07:44:17;;;;;;;16.67;5.03;;;;;;;1.96;100.00;100234.41;5026077;28;20124;-71
2023/01/19 07:46:42;;;;;;;19.77;5.35;;;;;;;1.99;100.00;100239.53;5026039;28;20088;-71
2023/01/19 07:49:08;;;;;;;16.85;5.50;;;;;;;1.94;100.00;100236.22;5023694;28;20045;-71
2023/01/19 07:51:35;;;;;;;12.73;4.50;;;;;;;2.12;100.00;100246.97;5025779;28;20048;-71
2023/01/19 07:54:00;;;;;;;14.23;4.85;;;;;;;2.12;100.00;100250.47;5025327;28;20042;-71
2023/01/19 07:56:28;;;;;;;14.30;4.85;;;;;;;2.20;100.00;100248.38;5016632;28;20049;-71
2023/01/19 07:58:54;;;;;;;19.45;5.38;;;;;;;2.24;100.00;100249.13;5024334;28;20026;-71
2023/01/19 08:01:19;;;;;;;19.95;4.57;;;;;;;2.14;100.00;100250.41;5017213;28;20059;-71
2023/01/19 08:03:46;;;;;;;14.45;4.22;;;;;;;2.30;100.00;100265.53;5023044;28;20394;-71
2023/01/19 08:06:32;;;;;;;22.10;5.30;;;;;;;2.31;100.00;100264.63;5016742;28;20045;-71
2023/01/19 08:08:57;;;;;;;15.82;5.40;;;;;;;2.27;100.00;100270.91;5022175;28;20049;-71
2023/01/19 08:11:23;;;;;;;13.38;6.75;;;;;;;2.24;100.00;100284.19;5023887;28;20049;-70
2023/01/19 08:13:48;;;;;;;12.18;5.40;;;;;;;2.26;100.00;100286.75;5024965;28;20049;-71
2023/01/19 08:16:13;;;;;;;22.80;6.45;;;;;;;2.33;100.00;100293.50;5021243;28;20048;-71
2023/01/19 08:18:39;;;;;;;17.17;5.55;;;;;;;2.36;100.00;100296.03;4997908;28;20108;-71
2023/01/19 08:21:04;;;;;;;16.10;6.07;;;;;;;2.47;100.00;100300.88;5022431;28;20099;-71
2023/01/19 08:23:30;;;;;;;20.85;7.45;;;;;;;2.50;100.00;100306.84;5011558;28;20037;-71
2023/01/19 08:25:56;;;;;;;21.42;7.80;;;;;;;2.46;100.00;100312.28;5018933;28;20452;-71
2023/01/19 08:28:21;;;;;;;20.98;6.78;;;;;;;2.52;100.00;100314.69;5023343;28;20146;-71
2023/01/19 08:30:52;;;;;;;21.52;7.07;;;;;;;2.45;100.00;100319.31;5024195;28;20145;-71
2023/01/19 08:33:19;;;;;;;20.40;7.68;;;;;;;2.70;100.00;100319.22;5024237;28;20041;-71
2023/01/19 08:35:47;;;;;;;15.68;6.57;;;;;;;2.68;100.00;100317.59;5015882;28;20155;-71
2023/01/19 08:38:13;;;;;;;23.63;8.85;;;;;;;2.68;100.00;100315.81;5021797;28;20045;-70
2023/01/19 08:40:40;;;;;;;15.05;7.50;;;;;;;2.62;100.00;100313.44;5023956;28;20048;-71
2023/01/19 08:43:14;;;;;;;19.02;7.28;;;;;;;2.62;100.00;100328.38;5024430;28;20037;-71
2023/01/19 08:45:49;;;;;;;15.52;7.93;;;;;;;2.57;100.00;100329.41;5025303;28;20068;-72
2023/01/19 08:48:18;;;;;;;22.42;8.32;;;;;;;2.66;100.00;100343.09;5006478;28;20053;-71
2023/01/19 08:50:47;;;;;;;24.95;9.85;;;;;;;2.60;100.00;100349.47;5016393;28;20045;-70
2023/01/19 08:53:13;;;;;;;27.48;9.95;;;;;;;2.60;100.00;100344.19;5019996;28;20049;-71
2023/01/19 08:55:39;;;;;;;30.30;10.07;;;;;;;2.54;100.00;100347.91;5024635;28;20036;-71
2023/01/19 08:58:06;;;;;;;37.33;9.55;;;;;;;2.53;100.00;100359.38;5014579;28;20038;-71
2023/01/19 09:00:33;;;;;;;21.13;9.38;;;;;;;2.44;100.00;100351.81;5023405;28;20038;-71
2023/01/19 09:03:02;;;;;;;23.98;11.40;;;;;;;2.45;100.00;100357.94;5024516;28;20049;-71
2023/01/19 09:05:30;;;;;;;42.47;13.00;;;;;;;2.54;100.00;100361.09;5025187;28;20402;-72
2023/01/19 09:07:56;;;;;;;27.60;10.23;;;;;;;2.60;100.00;100352.09;5018837;28;20048;-71
2023/01/19 09:10:21;;;;;;;27.52;9.70;;;;;;;2.57;100.00;100347.81;5024628;28;20037;-71
2023/01/19 09:12:46;;;;;;;24.45;10.45;;;;;;;2.72;100.00;100354.25;5025063;28;20033;-71
2023/01/19 09:15:15;;;;;;;26.80;10.60;;;;;;;2.60;100.00;100355.56;5023338;28;20103;-71
2023/01/19 09:17:41;;;;;;;23.55;9.30;;;;;;;2.69;100.00;100374.56;5006256;28;20047;-71
2023/01/19 09:20:07;;;;;;;16.90;8.23;;;;;;;2.77;100.00;100373.38;5024127;28;20048;-71
2023/01/19 09:22:33;;;;;;;24.95;10.10;;;;;;;2.77;100.00;100370.75;5024023;28;20132;-72
2023/01/19 09:24:59;;;;;;;28.20;8.57;;;;;;;2.89;100.00;100379.06;5020770;28;20111;-71
2023/01/19 09:27:24;;;;;;;39.92;11.55;;;;;;;3.10;100.00;100367.66;5024031;28;20052;-71
2023/01/19 09:29:52;;;;;;;33.67;10.90;;;;;;;3.25;100.00;100371.47;5023666;28;20120;-71
2023/01/19 09:32:19;;;;;;;30.65;11.10;;;;;;;3.48;100.00;100374.03;5001664;28;20040;-71
2023/01/19 09:34:45;;;;;;;24.40;11.35;;;;;;;3.31;100.00;100382.63;5020208;28;20076;-71
2023/01/19 09:37:10;;;;;;;32.85;12.43;;;;;;;3.55;100.00;100374.59;5024043;28;20576;-71
2023/01/19 09:39:36;;;;;;;27.50;12.25;;;;;;;3.42;100.00;100376.91;5018175;28;20045;-71
2023/01/19 09:42:29;;;;;;;28.95;11.32;;;;;;;3.47;100.00;100380.22;5023463;28;20056;-71
2023/01/19 09:44:55;;;;;;;30.65;12.32;;;;;;;3.48;100.00;100378.44;5021530;28;20029;-71
2023/01/19 09:47:26;;;;;;;31.83;12.32;;;;;;;3.61;100.00;100382.25;5022391;28;20502;-71
2023/01/19 09:49:58;;;;;;;35.42;12.23;;;;;;;3.33;100.00;100388.69;5022655;28;20140;-71
2023/01/19 09:52:23;;;;;;;;;;;;;;;3.52;100.00;100386.16;5021537;28;20049;-71
2023/01/19 09:54:53;;;;;;;36.33;12.35;;;;;;;3.53;100.00;100387.88;5015359;28;19920;-71
2023/01/19 09:57:24;;;;;;;28.88;11.75;;;;;;;3.58;100.00;100387.66;5021516;28;20041;-70
2023/01/19 09:59:50;;;;;;;30.55;12.82;;;;;;;3.48;100.00;100384.56;5021540;28;20080;-71
2023/01/19 10:02:33;;;;;;;27.52;9.93;;;;;;;3.50;100.00;100387.97;5014863;28;20136;-71
2023/01/19 10:05:04;;;;;;;25.95;10.80;;;;;;;3.82;100.00;100397.19;5021678;28;20041;-72
2023/01/19 10:07:44;;;;;;;27.95;10.40;;;;;;;3.98;100.00;100402.66;5008244;28;20033;-71
2023/01/19 10:10:16;;;;;;;27.58;9.88;;;;;;;3.84;100.00;100400.59;5000376;28;20050;-71
2023/01/19 10:13:12;;;;;;;29.50;11.17;;;;;;;3.96;100.00;100401.00;5003736;28;20090;-71
2023/01/19 10:15:55;;;;;;;34.75;10.85;;;;;;;3.83;100.00;100398.91;5019736;28;20086;-71
2023/01/19 10:18:33;;;;;;;36.30;9.57;;;;;;;4.04;100.00;100401.53;5020584;28;20574;-71
2023/01/19 10:21:05;;;;;;;23.30;10.32;;;;;;;3.85;100.00;100402.31;5021057;28;20042;-71
2023/01/19 10:23:45;;;;;;;30.55;10.65;;;;;;;4.19;100.00;100395.56;5022109;28;20053;-71
2023/01/19 10:26:35;;;;;;;33.67;9.85;;;;;;;4.36;100.00;100398.31;5020623;28;20116;-71
2023/01/19 10:29:05;;;;;;;31.55;8.77;;;;;;;4.38;100.00;100409.66;5021784;28;20037;-73
2023/01/19 10:31:34;;;;;;;17.50;8.07;;;;;;;4.57;100.00;100399.16;5022155;28;20068;-71
2023/01/19 10:34:00;;;;;;;39.10;8.88;;;;;;;4.51;100.00;100396.75;5001761;28;20030;-71
2023/01/19 10:36:53;;;;;;;25.15;8.18;;;;;;;4.54;100.00;100396.63;5019326;28;20464;-71
2023/01/19 10:39:18;;;;;;;;;;;;;;;4.64;100.00;100400.56;5015091;28;20608;-71
2023/01/19 10:41:50;;;;;;;22.95;6.45;;;;;;;4.61;100.00;100399.84;5015861;28;19917;-71
2023/01/19 10:44:35;;;;;;;19.63;6.78;;;;;;;4.57;100.00;100404.44;5018177;28;20069;-72
2023/01/19 10:47:01;;;;;;;25.42;6.68;;;;;;;4.58;100.00;100405.28;5021395;28;20041;-71
2023/01/19 10:49:30;;;;;;;20.90;6.60;;;;;;;4.81;100.00;100412.13;5017647;28;20040;-72
2023/01/19 10:51:57;;;;;;;22.00;5.57;;;;;;;4.76;100.00;100414.13;5020581;28;20367;-71
2023/01/19 10:54:25;;;;;;;22.08;4.65;;;;;;;4.82;100.00;100412.06;5021293;28;20037;-71
2023/01/19 10:57:02;;;;;;;14.40;4.93;;;;;;;4.65;100.00;100409.34;5021375;28;20045;-71
2023/01/19 10:59:36;;;;;;;20.75;5.55;;;;;;;4.51;100.00;100414.38;4993519;28;20561;-71
2023/01/19 11:02:20;;;;;;;20.08;5.05;;;;;;;4.54;100.00;100414.25;5017716;28;20048;-72
2023/01/19 11:04:48;;;;;;;19.95;5.05;;;;;;;4.44;100.00;100419.09;5013060;28;20045;-71
2023/01/19 11:07:16;;;;;;;17.80;7.05;;;;;;;4.51;100.00;100417.88;5021431;28;20688;-71
2023/01/19 11:09:42;;;;;;;20.80;5.25;;;;;;;4.28;100.00;100418.06;5015679;28;20029;-72
2023/01/19 11:12:19;;;;;;;18.17;6.30;;;;;;;4.29;100.00;100409.22;5021916;28;20084;-70
2023/01/19 11:14:46;;;;;;;25.63;5.85;;;;;;;4.48;100.00;100419.81;5022207;28;20057;-71
2023/01/19 11:17:18;;;;;;;20.90;5.75;;;;;;;4.54;100.00;100415.13;5016424;28;20096;-71
2023/01/19 11:19:53;;;;;;;22.52;6.78;;;;;;;4.52;100.00;100422.25;5022645;28;20049;-71
2023/01/19 11:22:26;;;;;;;20.10;6.95;;;;;;;4.63;100.00;100433.19;5022260;28;20473;-71
2023/01/19 11:24:51;;;;;;;21.77;8.00;;;;;;;4.75;100.00;100420.34;5013652;28;20094;-71
2023/01/19 11:27:19;;;;;;;25.35;8.23;;;;;;;4.77;100.00;100418.47;5020240;28;20045;-71
2023/01/19 11:29:49;;;;;;;25.38;7.43;;;;;;;4.72;100.00;100426.63;5019008;28;20057;-71
2023/01/19 11:32:26;;;;;;;27.58;7.75;;;;;;;4.81;100.00;100420.91;5000859;28;20104;-72
2023/01/19 11:34:51;;;;;;;27.00;8.90;;;;;;;4.72;100.00;100416.06;5020138;28;20572;-72